Time;durP1;ratioP1;P1;durP2;ratioP2;P2;SDS_P1;SDS_P2;PMS_P1;PMS_P2;Temp;Humidity;BMP_temperature;BMP_pressure;BME280_temperature;BME280_humidity;BME280_pressure;Samples;Min_cycle;Max_cycle;Signal;HPM_P1;HPM_P2
2022/12/16 00:00:09;;;;;;;27.45;17.27;;;5.30;99.90;;;;;;5093594;28;20051;-43
2022/12/16 00:02:35;;;;;;;29.35;18.40;;;5.20;99.90;;;;;;5093419;28;20043;-41
2022/12/16 00:05:00;;;;;;;29.30;18.25;;;6.00;99.90;;;;;;5093408;28;20032;-44
2022/12/16 00:07:26;;;;;;;27.83;17.58;;;8.60;99.90;;;;;;5093305;28;20022;-43
2022/12/16 00:09:51;;;;;;;23.83;15.82;;;9.10;99.90;;;;;;5093345;28;20035;-44
2022/12/16 00:12:17;;;;;;;24.80;15.63;;;10.10;99.90;;;;;;5093372;28;20026;-44
2022/12/16 00:14:43;;;;;;;24.75;15.95;;;10.30;99.90;;;;;;5093657;28;20461;-44
2022/12/16 00:17:08;;;;;;;25.13;16.23;;;9.40;99.90;;;;;;5092927;28;20069;-44
2022/12/16 00:19:34;;;;;;;26.38;16.20;;;8.70;99.90;;;;;;5093102;28;20376;-43
2022/12/16 00:22:00;;;;;;;26.65;16.73;;;8.10;99.90;;;;;;5093192;28;20024;-44
2022/12/16 00:24:25;;;;;;;25.92;16.63;;;7.60;99.90;;;;;;5093084;28;20020;-42
2022/12/16 00:26:51;;;;;;;26.38;17.08;;;7.20;99.90;;;;;;5092840;28;20107;-43
2022/12/16 00:29:17;;;;;;;28.42;17.60;;;6.90;99.90;;;;;;5093034;28;20036;-41
2022/12/16 00:31:46;;;;;;;27.02;17.13;;;6.70;99.90;;;;;;5092878;28;20107;-43
2022/12/16 00:34:13;;;;;;;27.98;17.33;;;6.60;99.90;;;;;;5092820;28;20050;-43
2022/12/16 00:36:38;;;;;;;26.80;17.25;;;6.40;99.90;;;;;;5092529;28;20479;-43
2022/12/16 00:39:04;;;;;;;28.88;17.35;;;6.30;99.90;;;;;;5092815;28;20032;-43
2022/12/16 00:41:29;;;;;;;26.50;16.92;;;6.10;99.90;;;;;;5092772;28;20020;-44
2022/12/16 00:43:55;;;;;;;26.13;17.08;;;5.90;99.90;;;;;;5092784;28;20032;-44
2022/12/16 00:46:20;;;;;;;29.92;18.10;;;5.80;99.90;;;;;;5092417;28;20020;-43
2022/12/16 00:48:46;;;;;;;24.92;16.25;;;5.70;99.90;;;;;;5092464;28;20028;-43
2022/12/16 00:51:12;;;;;;;28.00;17.80;;;5.60;99.90;;;;;;5092702;28;20028;-42
2022/12/16 00:53:37;;;;;;;26.40;17.13;;;5.50;99.90;;;;;;5092536;28;20043;-43
2022/12/16 00:56:08;;;;;;;26.80;17.25;;;5.50;99.90;;;;;;5092019;28;20043;-44
2022/12/16 00:58:35;;;;;;;29.25;17.50;;;5.40;99.90;;;;;;5092566;28;20023;-43
2022/12/16 01:01:02;;;;;;;26.17;17.00;;;5.40;99.90;;;;;;5092435;28;20031;-43
2022/12/16 01:03:27;;;;;;;30.55;17.27;;;5.40;99.90;;;;;;5092309;28;20177;-44
2022/12/16 01:05:53;;;;;;;27.38;16.98;;;6.70;99.90;;;;;;5092282;28;20111;-44
2022/12/16 01:08:19;;;;;;;25.00;16.58;;;8.40;99.90;;;;;;5092190;28;20102;-43
2022/12/16 01:10:52;;;;;;;27.35;16.92;;;9.50;99.90;;;;;;5092245;28;20124;-44
2022/12/16 01:13:19;;;;;;;28.92;17.35;;;10.40;99.90;;;;;;5092188;28;20024;-44
2022/12/16 01:15:45;;;;;;;26.30;17.08;;;9.90;99.90;;;;;;5091789;28;20028;-44
2022/12/16 01:18:10;;;;;;;25.10;16.27;;;9.10;99.90;;;;;;5092058;28;20359;-42
2022/12/16 01:20:37;;;;;;;27.48;16.88;;;8.40;99.90;;;;;;5093022;28;20024;-44
2022/12/16 01:23:03;;;;;;;25.65;16.60;;;7.80;99.90;;;;;;5094716;28;20074;-44
2022/12/16 01:25:28;;;;;;;25.42;17.02;;;7.40;99.90;;;;;;5091871;28;20524;-44
2022/12/16 01:27:54;;;;;;;27.25;17.33;;;7.00;99.90;;;;;;5091822;28;20044;-42
2022/12/16 01:30:20;;;;;;;23.60;16.25;;;6.80;99.90;;;;;;5091809;28;20065;-44
2022/12/16 01:32:45;;;;;;;32.40;17.55;;;6.60;99.90;;;;;;5091950;28;20028;-41
2022/12/16 01:35:12;;;;;;;26.98;17.38;;;6.50;99.90;;;;;;5091782;28;20047;-44
2022/12/16 01:37:38;;;;;;;25.48;16.83;;;6.40;99.90;;;;;;5091583;28;20021;-43
2022/12/16 01:40:04;;;;;;;24.05;17.38;;;6.20;99.90;;;;;;5091779;28;20027;-43
2022/12/16 01:42:32;;;;;;;25.98;16.95;;;6.10;99.90;;;;;;5091267;28;20020;-44
2022/12/16 01:45:35;;;;;;;25.33;16.42;;;6.00;99.90;;;;;;5091572;28;20095;-44
2022/12/16 01:48:18;;;;;;;24.35;16.17;;;5.80;99.90;;;;;;5091455;28;20035;-44
2022/12/16 01:50:44;;;;;;;27.73;16.77;;;5.70;99.90;;;;;;5091600;28;20024;-44
2022/12/16 01:53:11;;;;;;;27.85;17.23;;;5.60;99.90;;;;;;5091477;28;20034;-44
2022/12/16 01:55:41;;;;;;;26.30;16.63;;;5.50;99.90;;;;;;5091188;28;20035;-44
2022/12/16 01:58:14;;;;;;;26.67;16.33;;;5.50;99.90;;;;;;5091645;28;20023;-45
2022/12/16 02:00:40;;;;;;;31.73;16.63;;;5.40;99.90;;;;;;5091663;28;20020;-44
2022/12/16 02:03:06;;;;;;;31.20;18.35;;;5.40;99.90;;;;;;5091485;28;20392;-44
2022/12/16 02:05:39;;;;;;;28.85;17.10;;;6.50;99.90;;;;;;5089943;28;20439;-44
2022/12/16 02:08:05;;;;;;;29.33;16.50;;;8.20;99.90;;;;;;5091217;28;20104;-43
2022/12/16 02:10:36;;;;;;;28.80;17.55;;;8.90;99.90;;;;;;5091572;28;20198;-44
2022/12/16 02:13:21;;;;;;;25.02;16.98;;;8.40;99.90;;;;;;5091385;28;20573;-42
2022/12/16 02:16:06;;;;;;;25.67;15.93;;;7.80;99.90;;;;;;5089927;28;20488;-42
2022/12/16 02:18:46;;;;;;;24.45;16.02;;;7.40;99.90;;;;;;5091336;28;20517;-43
2022/12/16 02:21:31;;;;;;;24.75;17.00;;;7.00;99.90;;;;;;5091284;28;20058;-43
2022/12/16 02:24:33;;;;;;;28.33;17.08;;;6.80;99.90;;;;;;5091261;28;20028;-41
2022/12/16 02:27:37;;;;;;;26.05;16.35;;;8.00;99.90;;;;;;5090955;28;20035;-44
2022/12/16 02:30:34;;;;;;;26.08;16.02;;;7.80;99.90;;;;;;5091183;28;20038;-43
2022/12/16 02:33:31;;;;;;;26.58;16.08;;;7.40;99.90;;;;;;5091188;28;20063;-43
2022/12/16 02:36:20;;;;;;;24.92;15.77;;;7.10;99.90;;;;;;5090814;28;20036;-43
2022/12/16 02:39:05;;;;;;;24.90;15.98;;;7.00;99.90;;;;;;5091052;28;20028;-43
2022/12/16 02:41:36;;;;;;;24.23;16.08;;;8.10;99.90;;;;;;5091108;28;20603;-44
2022/12/16 02:44:05;;;;;;;24.52;14.45;;;7.90;99.90;;;;;;5091090;28;20592;-44
2022/12/16 02:46:37;;;;;;;24.35;15.75;;;7.50;99.90;;;;;;5090765;28;20020;-43
2022/12/16 02:49:11;;;;;;;22.90;15.95;;;7.20;99.90;;;;;;5091097;28;20045;-44
2022/12/16 02:51:37;;;;;;;26.80;17.13;;;6.90;99.90;;;;;;5090820;28;20028;-44
2022/12/16 02:54:04;;;;;;;25.70;16.40;;;7.50;99.90;;;;;;5091610;28;20032;-42
2022/12/16 02:56:51;;;;;;;25.73;16.58;;;8.10;99.90;;;;;;5094512;28;20024;-44
2022/12/16 02:59:34;;;;;;;25.95;15.88;;;7.80;99.90;;;;;;5094801;28;20027;-44
2022/12/16 03:02:26;;;;;;;26.33;15.60;;;7.40;99.90;;;;;;5094696;28;20374;-43
2022/12/16 03:05:02;;;;;;;24.75;16.10;;;7.10;99.90;;;;;;5094644;28;20056;-44
2022/12/16 03:07:32;;;;;;;26.42;16.38;;;7.00;99.90;;;;;;5093029;28;20070;-43
2022/12/16 03:09:58;;;;;;;24.27;15.27;;;8.10;99.90;;;;;;5095016;28;20512;-44
2022/12/16 03:12:25;;;;;;;22.95;14.45;;;7.90;99.90;;;;;;5094905;28;20469;-43
2022/12/16 03:14:53;;;;;;;24.45;15.70;;;7.60;99.90;;;;;;5094702;28;20028;-42
2022/12/16 03:17:23;;;;;;;24.50;15.52;;;7.20;99.90;;;;;;5094090;28;20024;-44
2022/12/16 03:20:03;;;;;;;22.63;15.80;;;6.90;99.90;;;;;;5094511;28;20020;-44
2022/12/16 03:22:33;;;;;;;24.17;15.13;;;6.80;99.90;;;;;;5094315;28;20508;-44
2022/12/16 03:24:59;;;;;;;26.70;16.05;;;6.60;99.90;;;;;;5094124;28;20028;-44
2022/12/16 03:27:38;;;;;;;25.35;15.35;;;6.40;99.90;;;;;;5093911;28;20054;-43
2022/12/16 03:30:12;;;;;;;24.10;14.82;;;6.30;99.90;;;;;;5094336;28;20031;-44
2022/12/16 03:32:49;;;;;;;24.48;16.30;;;6.10;99.90;;;;;;5094327;28;20474;-44
2022/12/16 03:35:24;;;;;;;25.77;15.07;;;5.90;99.90;;;;;;5092601;28;20024;-44
2022/12/16 03:37:54;;;;;;;26.10;15.93;;;5.80;99.90;;;;;;5093944;28;20021;-43
2022/12/16 03:40:21;;;;;;;24.40;15.30;;;5.70;99.90;;;;;;5093989;28;20385;-43
2022/12/16 03:42:48;;;;;;;25.83;16.38;;;5.60;99.90;;;;;;5093977;28;20055;-43
2022/12/16 03:45:27;;;;;;;23.17;15.35;;;5.50;99.90;;;;;;5093796;28;20501;-44
2022/12/16 03:47:56;;;;;;;28.27;16.73;;;5.40;99.90;;;;;;5093637;28;20074;-44
2022/12/16 03:50:28;;;;;;;25.08;15.13;;;5.30;99.90;;;;;;5093914;28;20028;-41
2022/12/16 03:52:54;;;;;;;24.60;15.65;;;5.30;99.90;;;;;;5096175;28;20023;-42
2022/12/16 03:55:20;;;;;;;23.38;16.00;;;5.30;99.90;;;;;;5093452;28;20086;-43
2022/12/16 03:57:46;;;;;;;26.17;16.23;;;5.20;99.90;;;;;;5093504;28;20016;-44
2022/12/16 04:00:12;;;;;;;25.92;16.48;;;5.20;99.90;;;;;;5093627;28;20148;-44
2022/12/16 04:02:37;;;;;;;24.58;15.88;;;5.20;99.90;;;;;;5094215;28;20116;-44
2022/12/16 04:05:03;;;;;;;25.52;15.85;;;6.00;99.90;;;;;;5091660;28;20111;-42
2022/12/16 04:07:29;;;;;;;22.58;14.93;;;8.10;99.90;;;;;;5093385;28;20028;-44
2022/12/16 04:09:55;;;;;;;21.67;14.88;;;8.90;99.90;;;;;;5093439;28;20020;-43
2022/12/16 04:26:15;;;;;;;21.95;14.43;;;7.50;99.90;;;;;;5092870;28;20539;-43
2022/12/16 04:28:41;;;;;;;21.17;14.32;;;8.10;99.90;;;;;;5093125;28;20024;-43
2022/12/16 04:31:07;;;;;;;25.33;14.35;;;7.70;99.90;;;;;;5093044;28;20024;-44
